Time;durP1;ratioP1;P1;durP2;ratioP2;P2;SDS_P1;SDS_P2;PMS_P1;PMS_P2;Temp;Humidity;BMP_temperature;BMP_pressure;BME280_temperature;BME280_humidity;BME280_pressure;Samples;Min_cycle;Max_cycle;Signal;HPM_P1;HPM_P2
2022/01/25 00:24:22;;;;;;;22.23;13.50;;;4.70;99.90;;;;;;4981648;28;20201;-82
2022/01/25 00:27:02;;;;;;;20.85;12.90;;;4.70;99.90;;;;;;5011600;28;20193;-83
2022/01/25 00:29:35;;;;;;;24.73;14.73;;;4.70;99.90;;;;;;5011842;28;20192;-81
2022/01/25 00:32:03;;;;;;;27.05;15.15;;;4.70;99.90;;;;;;5009709;28;20229;-80
2022/01/25 00:34:30;;;;;;;25.35;13.27;;;4.60;99.90;;;;;;5010614;28;20197;-81
2022/01/25 00:36:57;;;;;;;25.95;13.68;;;4.70;99.90;;;;;;5008061;28;20260;-81
2022/01/25 00:39:24;;;;;;;23.85;14.90;;;4.80;99.90;;;;;;5011668;28;20209;-81
2022/01/25 00:41:50;;;;;;;19.83;13.20;;;4.70;99.90;;;;;;5033328;22;20255;-78
2022/01/25 00:44:17;;;;;;;24.95;13.70;;;4.70;99.90;;;;;;5025403;28;20220;-79
2022/01/25 00:46:44;;;;;;;25.08;14.80;;;4.80;99.90;;;;;;5021510;28;20200;-79
2022/01/25 00:49:15;;;;;;;24.73;14.73;;;4.80;99.90;;;;;;5021367;28;20215;-80
2022/01/25 00:52:05;;;;;;;24.58;13.85;;;4.50;99.90;;;;;;5020621;28;20185;-79
2022/01/25 00:54:33;;;;;;;26.23;14.10;;;4.50;99.90;;;;;;5019806;28;20204;-80
2022/01/25 00:57:01;;;;;;;26.05;14.05;;;4.60;99.90;;;;;;5020037;28;20239;-80
2022/01/25 00:59:30;;;;;;;23.83;12.95;;;4.50;99.90;;;;;;5020897;28;20228;-79
2022/01/25 01:01:58;;;;;;;23.77;12.90;;;4.50;99.90;;;;;;5020034;28;20224;-80
2022/01/25 01:04:26;;;;;;;22.70;13.85;;;4.50;99.90;;;;;;5020098;28;20597;-80
2022/01/25 01:06:55;;;;;;;28.15;14.60;;;4.60;99.90;;;;;;5027750;28;20227;-78
2022/01/25 01:09:23;;;;;;;25.17;13.25;;;4.70;99.90;;;;;;5033766;28;20204;-77
2022/01/25 01:11:56;;;;;;;29.10;15.88;;;4.30;99.90;;;;;;5034551;28;20200;-80
2022/01/25 01:14:38;;;;;;;25.00;14.75;;;4.50;99.90;;;;;;5032681;28;20192;-80
2022/01/25 01:17:20;;;;;;;23.42;13.85;;;4.60;99.90;;;;;;5030682;28;20215;-79
2022/01/25 01:30:58;;;;;;;22.17;13.90;;;4.90;99.90;;;;;;5033358;28;20191;-79
2022/01/25 01:33:59;;;;;;;27.33;13.63;;;4.90;99.90;;;;;;5034960;28;20232;-79
2022/01/25 01:37:00;;;;;;;26.60;14.30;;;4.70;99.90;;;;;;5035055;28;20248;-79
2022/01/25 01:45:11;;;;;;;19.23;12.90;;;4.70;99.90;;;;;;5036002;28;20200;-79
2022/01/25 01:47:46;;;;;;;21.70;12.60;;;4.70;99.90;;;;;;5039415;28;20240;-79
2022/01/25 01:50:16;;;;;;;27.50;14.93;;;4.70;99.90;;;;;;5035879;28;20219;-79
2022/01/25 01:52:43;;;;;;;27.23;13.75;;;4.50;99.90;;;;;;5023886;28;20229;-79
2022/01/25 01:55:12;;;;;;;32.75;15.90;;;4.70;99.90;;;;;;5021684;28;20204;-80
2022/01/25 01:57:39;;;;;;;22.35;14.15;;;4.70;99.90;;;;;;5021968;28;20266;-79
2022/01/25 02:00:07;;;;;;;23.25;13.95;;;4.60;99.90;;;;;;5033776;28;20231;-80
2022/01/25 02:02:34;;;;;;;30.35;15.95;;;4.50;99.90;;;;;;5024079;28;20208;-77
2022/01/25 02:05:01;;;;;;;24.05;13.82;;;4.60;99.90;;;;;;5033953;28;20204;-77
2022/01/25 02:07:27;;;;;;;23.38;12.95;;;4.60;99.90;;;;;;5033270;28;20219;-81
2022/01/25 02:09:54;;;;;;;25.02;14.32;;;4.60;99.90;;;;;;5025097;28;20208;-79
2022/01/25 02:12:22;;;;;;;33.47;15.55;;;4.60;99.90;;;;;;5021302;28;20246;-80
2022/01/25 02:14:49;;;;;;;27.38;15.45;;;4.60;99.90;;;;;;5021380;28;20205;-79
2022/01/25 02:17:38;;;;;;;25.63;13.07;;;4.50;99.90;;;;;;5020219;28;20224;-80
2022/01/25 02:22:56;;;;;;;30.90;16.02;;;4.40;99.90;;;;;;5021525;28;20687;-79
2022/01/25 02:25:23;;;;;;;30.63;16.95;;;4.40;99.90;;;;;;5030768;28;20200;-77
2022/01/25 02:27:50;;;;;;;32.30;15.27;;;4.40;99.90;;;;;;5032018;28;20204;-80
2022/01/25 02:30:17;;;;;;;27.95;13.90;;;4.40;99.90;;;;;;5020947;28;20215;-79
2022/01/25 02:32:44;;;;;;;26.95;14.90;;;4.40;99.90;;;;;;5028526;28;20251;-78
2022/01/25 02:35:12;;;;;;;26.85;14.77;;;4.40;99.90;;;;;;5034413;28;20215;-79
2022/01/25 02:37:39;;;;;;;30.85;17.38;;;4.30;99.90;;;;;;5031104;28;20255;-78
2022/01/25 02:40:07;;;;;;;27.77;16.58;;;4.30;99.90;;;;;;5033842;28;20207;-78
2022/01/25 02:42:34;;;;;;;40.50;17.10;;;4.30;99.90;;;;;;5031695;28;20299;-78
2022/01/25 02:45:01;;;;;;;46.45;19.67;;;4.10;99.90;;;;;;5019473;28;20274;-79
2022/01/25 02:50:13;;;;;;;50.22;22.10;;;4.10;99.90;;;;;;5018582;28;20196;-79
2022/01/25 02:52:40;;;;;;;43.08;18.35;;;4.10;99.90;;;;;;5018164;28;20225;-80
2022/01/25 02:55:07;;;;;;;44.45;20.23;;;4.10;99.90;;;;;;5019192;28;20299;-79
2022/01/25 02:57:33;;;;;;;48.25;21.95;;;4.00;99.90;;;;;;5017549;28;20673;-79
2022/01/25 03:00:03;;;;;;;54.08;23.55;;;4.00;99.90;;;;;;5018779;28;20201;-79
2022/01/25 03:02:30;;;;;;;48.20;21.75;;;3.90;99.90;;;;;;5017763;28;20226;-80
2022/01/25 03:04:56;;;;;;;53.92;22.77;;;4.00;99.90;;;;;;5017627;28;20208;-80
2022/01/25 03:07:24;;;;;;;49.75;21.70;;;4.00;99.90;;;;;;5017695;28;20220;-80
2022/01/25 03:09:52;;;;;;;43.83;23.05;;;4.10;99.90;;;;;;5017613;28;20239;-80
2022/01/25 03:12:30;;;;;;;49.03;22.20;;;4.00;99.90;;;;;;5017827;28;20235;-79
2022/01/25 03:15:12;;;;;;;41.38;17.85;;;4.00;99.90;;;;;;5017271;28;20246;-78
2022/01/25 03:17:45;;;;;;;42.85;19.55;;;4.10;99.90;;;;;;5017413;28;20205;-80
2022/01/25 03:20:19;;;;;;;34.10;15.55;;;3.90;99.90;;;;;;5017636;28;20188;-79
2022/01/25 03:22:58;;;;;;;37.38;18.35;;;3.90;99.90;;;;;;5017737;28;20235;-80
2022/01/25 03:25:26;;;;;;;46.33;20.60;;;3.90;99.90;;;;;;5017341;28;20195;-80
2022/01/25 03:27:52;;;;;;;48.15;20.38;;;3.80;99.90;;;;;;5025855;28;20204;-78
2022/01/25 03:30:19;;;;;;;44.20;20.90;;;3.90;99.90;;;;;;5032111;28;20564;-78
2022/01/25 03:32:46;;;;;;;34.35;17.58;;;3.80;99.90;;;;;;5022974;28;20232;-79
2022/01/25 03:35:12;;;;;;;42.45;19.35;;;4.00;99.90;;;;;;5032576;28;20204;-79
2022/01/25 03:37:39;;;;;;;41.33;19.20;;;3.80;99.90;;;;;;5033677;28;20212;-79
2022/01/25 03:40:09;;;;;;;38.70;20.38;;;3.70;99.90;;;;;;5019932;28;20204;-80
2022/01/25 03:42:37;;;;;;;43.55;18.55;;;3.70;99.90;;;;;;5017945;28;20231;-80
2022/01/25 03:45:05;;;;;;;34.25;18.30;;;3.70;99.90;;;;;;5016547;28;20272;-79
2022/01/25 03:47:44;;;;;;;41.22;19.98;;;3.40;99.90;;;;;;5017520;28;20228;-79
2022/01/25 03:50:10;;;;;;;36.20;17.35;;;3.70;99.90;;;;;;5016842;28;20562;-79
2022/01/25 03:52:37;;;;;;;38.57;19.13;;;3.80;99.90;;;;;;5016909;28;20314;-79
2022/01/25 03:55:04;;;;;;;44.20;19.13;;;3.80;99.90;;;;;;5018095;28;20538;-81
2022/01/25 03:57:32;;;;;;;37.58;18.67;;;3.70;99.90;;;;;;5023232;28;20282;-78
2022/01/25 04:00:00;;;;;;;40.65;18.65;;;3.70;99.90;;;;;;5035534;28;20201;-79
2022/01/25 04:02:28;;;;;;;38.08;17.05;;;3.70;99.90;;;;;;5034973;28;20232;-77
2022/01/25 04:04:56;;;;;;;36.42;18.15;;;3.80;99.90;;;;;;5032927;28;20204;-78
2022/01/25 04:07:30;;;;;;;41.78;17.83;;;3.80;99.90;;;;;;5030483;28;20209;-78
2022/01/25 04:09:57;;;;;;;42.15;17.00;;;3.70;99.90;;;;;;5029324;28;20195;-79
2022/01/25 04:12:24;;;;;;;35.40;19.00;;;3.80;99.90;;;;;;5029918;28;20224;-78
2022/01/25 04:14:52;;;;;;;40.10;18.10;;;3.90;99.90;;;;;;5029700;28;20204;-79
2022/01/25 04:17:21;;;;;;;35.42;17.80;;;3.80;99.90;;;;;;5030516;28;20224;-78
2022/01/25 04:20:09;;;;;;;31.45;16.63;;;4.00;99.90;;;;;;5012627;28;20200;-78
2022/01/25 04:25:18;;;;;;;36.50;17.88;;;4.00;99.90;;;;;;5030323;28;20203;-78
2022/01/25 04:27:45;;;;;;;33.15;16.40;;;4.10;99.90;;;;;;5027925;28;20209;-80
2022/01/25 04:30:13;;;;;;;30.67;15.23;;;4.00;99.90;;;;;;5021920;28;20267;-79
2022/01/25 04:32:47;;;;;;;28.85;15.20;;;4.20;99.90;;;;;;5019256;28;20224;-80
2022/01/25 04:35:28;;;;;;;33.83;16.25;;;4.20;99.90;;;;;;5019413;28;20220;-78
2022/01/25 04:49:06;;;;;;;29.08;15.00;;;4.30;99.90;;;;;;5033696;28;20192;-79
2022/01/25 04:51:54;;;;;;;28.67;14.35;;;4.20;99.90;;;;;;5032496;28;20256;-79
2022/01/25 04:54:32;;;;;;;31.75;15.80;;;4.20;99.90;;;;;;5019988;28;20578;-80
2022/01/25 04:57:10;;;;;;;30.50;15.65;;;4.30;99.90;;;;;;5030093;28;20211;-78
2022/01/25 04:59:42;;;;;;;31.98;15.68;;;4.30;99.90;;;;;;5030883;28;20192;-78
2022/01/25 05:02:15;;;;;;;26.77;14.18;;;4.20;99.90;;;;;;5031892;28;20224;-80
2022/01/25 05:04:46;;;;;;;29.00;13.40;;;4.20;99.90;;;;;;5025715;28;20216;-78
2022/01/25 05:07:26;;;;;;;28.95;14.35;;;4.20;99.90;;;;;;5033592;28;20189;-78
2022/01/25 05:09:54;;;;;;;32.08;15.88;;;4.20;99.90;;;;;;5034233;28;20216;-79
2022/01/25 05:12:31;;;;;;;26.67;15.07;;;4.20;99.90;;;;;;5034980;28;20228;-79
2022/01/25 05:15:00;;;;;;;31.63;15.25;;;4.20;99.90;;;;;;5033513;28;20196;-79
2022/01/25 05:17:36;;;;;;;29.92;14.45;;;4.20;99.90;;;;;;5031791;28;20224;-79
2022/01/25 05:22:44;;;;;;;27.70;15.20;;;4.10;99.90;;;;;;5030899;28;20280;-79
2022/01/25 05:25:11;;;;;;;36.20;13.95;;;4.20;99.90;;;;;;5030531;28;20281;-80
2022/01/25 05:27:38;;;;;;;47.35;16.23;;;4.20;99.90;;;;;;5030739;28;20263;-79
2022/01/25 05:30:05;;;;;;;29.30;15.80;;;4.30;99.90;;;;;;5030978;28;20300;-80
2022/01/25 05:32:34;;;;;;;25.88;13.55;;;4.40;99.90;;;;;;5030325;28;20251;-80
2022/01/25 05:35:01;;;;;;;29.05;14.90;;;4.30;99.90;;;;;;5033580;28;20225;-79
2022/01/25 05:37:28;;;;;;;33.40;16.85;;;4.50;99.90;;;;;;5034425;28;20318;-79
2022/01/25 05:39:55;;;;;;;27.00;14.80;;;4.40;99.90;;;;;;5034192;28;20340;-78
2022/01/25 05:42:45;;;;;;;28.83;15.13;;;4.50;99.90;;;;;;5030244;28;20505;-78
2022/01/25 05:45:19;;;;;;;27.30;15.05;;;4.40;99.90;;;;;;5031565;28;20208;-79
2022/01/25 05:47:47;;;;;;;30.80;15.82;;;4.40;99.90;;;;;;5012746;28;20259;-77
2022/01/25 05:50:14;;;;;;;27.50;14.73;;;4.30;99.90;;;;;;5032480;28;20208;-78
2022/01/25 05:52:41;;;;;;;31.52;14.80;;;4.30;99.90;;;;;;5032499;28;20299;-78
2022/01/25 05:55:09;;;;;;;29.25;16.25;;;4.30;99.90;;;;;;5032887;28;20204;-77
2022/01/25 05:57:36;;;;;;;27.95;14.93;;;4.20;99.90;;;;;;5033385;28;20232;-79
2022/01/25 06:00:05;;;;;;;29.45;15.45;;;4.40;99.90;;;;;;5033406;28;20219;-80
2022/01/25 06:02:33;;;;;;;29.83;14.63;;;4.30;99.90;;;;;;5027954;28;20275;-79
2022/01/25 06:05:01;;;;;;;25.90;14.40;;;4.40;99.90;;;;;;5028731;28;20208;-79
2022/01/25 06:07:27;;;;;;;27.73;14.18;;;4.50;99.90;;;;;;5029134;28;20200;-78
2022/01/25 06:09:54;;;;;;;23.20;14.23;;;4.40;99.90;;;;;;5027568;28;20264;-78
2022/01/25 06:12:21;;;;;;;28.33;15.48;;;4.30;99.90;;;;;;5028767;28;20698;-79
2022/01/25 06:14:47;;;;;;;25.77;14.88;;;4.40;99.90;;;;;;5030077;28;20220;-78
2022/01/25 06:17:15;;;;;;;30.58;14.25;;;4.00;99.90;;;;;;5030547;28;20204;-78
2022/01/25 06:19:43;;;;;;;28.65;14.88;;;4.20;99.90;;;;;;5030895;28;20204;-78
2022/01/25 06:22:11;;;;;;;33.20;15.40;;;4.30;99.90;;;;;;5031633;28;20855;-78
2022/01/25 06:24:38;;;;;;;27.02;14.90;;;4.30;99.90;;;;;;5030785;28;20208;-78
2022/01/25 06:27:05;;;;;;;34.30;17.05;;;4.30;99.90;;;;;;5031503;28;20211;-78
2022/01/25 06:29:32;;;;;;;27.35;14.32;;;4.10;99.90;;;;;;5031070;28;20204;-78
2022/01/25 06:31:59;;;;;;;29.17;15.05;;;4.30;99.90;;;;;;5031248;28;20259;-78
2022/01/25 06:34:26;;;;;;;30.92;15.63;;;4.40;99.90;;;;;;5031633;28;20204;-78
2022/01/25 06:36:52;;;;;;;32.90;15.75;;;4.40;99.90;;;;;;5032740;28;20216;-78
2022/01/25 06:39:20;;;;;;;35.50;16.88;;;4.30;99.90;;;;;;5032738;28;20251;-79
2022/01/25 06:41:47;;;;;;;32.35;16.65;;;4.40;99.90;;;;;;5031784;28;20204;-79
2022/01/25 06:44:14;;;;;;;33.53;16.48;;;4.00;99.90;;;;;;5032314;28;20197;-78
2022/01/25 06:46:41;;;;;;;34.17;15.85;;;4.10;99.90;;;;;;5032465;28;20232;-78
2022/01/25 06:49:07;;;;;;;31.75;16.40;;;4.00;99.90;;;;;;5031741;28;20307;-79
2022/01/25 06:51:34;;;;;;;41.95;16.58;;;4.10;99.90;;;;;;5032702;28;20357;-78
2022/01/25 06:54:00;;;;;;;35.15;16.08;;;4.00;99.90;;;;;;5034523;28;20208;-79
2022/01/25 06:56:28;;;;;;;36.20;18.40;;;4.00;99.90;;;;;;5032920;28;20204;-78
2022/01/25 06:58:55;;;;;;;32.47;16.00;;;4.10;99.90;;;;;;5032699;28;20228;-78
2022/01/25 07:01:21;;;;;;;37.83;17.38;;;4.00;99.90;;;;;;5032183;28;20215;-78
2022/01/25 07:03:48;;;;;;;35.05;17.33;;;3.90;99.90;;;;;;5032883;28;20224;-79
2022/01/25 07:06:15;;;;;;;42.10;18.75;;;3.90;99.90;;;;;;5032805;28;20201;-78
2022/01/25 07:08:44;;;;;;;31.73;17.48;;;3.80;99.90;;;;;;5033088;28;20545;-78
2022/01/25 07:11:11;;;;;;;30.05;16.83;;;4.00;99.90;;;;;;5032151;28;20200;-79
2022/01/25 07:13:39;;;;;;;31.58;16.88;;;4.00;99.90;;;;;;5031934;28;20270;-79
2022/01/25 07:16:05;;;;;;;37.92;18.05;;;4.00;99.90;;;;;;5031414;28;20208;-78
2022/01/25 07:18:32;;;;;;;46.92;24.95;;;4.10;99.90;;;;;;5031568;28;20454;-79
2022/01/25 07:20:59;;;;;;;39.92;18.27;;;4.00;99.90;;;;;;5031419;28;20218;-78
2022/01/25 07:23:26;;;;;;;36.20;18.15;;;3.90;99.90;;;;;;5030778;28;20303;-78
2022/01/25 07:25:52;;;;;;;39.70;17.00;;;4.00;99.90;;;;;;5030617;28;20226;-77
2022/01/25 07:28:19;;;;;;;38.45;16.55;;;4.00;99.90;;;;;;5031504;28;20211;-78
2022/01/25 07:30:47;;;;;;;33.13;17.25;;;4.10;99.90;;;;;;5030056;28;20200;-78
2022/01/25 07:33:14;;;;;;;46.33;19.20;;;4.00;99.90;;;;;;5032016;28;20224;-77
2022/01/25 07:35:41;;;;;;;34.20;17.10;;;4.00;99.90;;;;;;5031774;28;20208;-76
2022/01/25 07:38:07;;;;;;;39.08;17.88;;;3.90;99.90;;;;;;5030840;28;20228;-78
2022/01/25 07:40:36;;;;;;;40.28;18.90;;;3.90;99.90;;;;;;5028666;28;20267;-78
2022/01/25 07:43:04;;;;;;;44.28;19.98;;;3.80;99.90;;;;;;5027796;28;20298;-81
2022/01/25 07:45:35;;;;;;;40.45;19.08;;;4.00;99.90;;;;;;5026427;28;20420;-79
2022/01/25 07:48:03;;;;;;;40.70;20.50;;;4.00;99.90;;;;;;5026781;28;20188;-79
2022/01/25 07:50:30;;;;;;;37.40;18.27;;;3.90;99.90;;;;;;5026659;28;20215;-78
2022/01/25 07:52:56;;;;;;;39.90;16.85;;;3.90;99.90;;;;;;5027970;28;20251;-79
2022/01/25 07:55:23;;;;;;;48.72;19.10;;;3.90;99.90;;;;;;5025535;28;20218;-78
2022/01/25 07:57:50;;;;;;;34.67;18.73;;;4.00;99.90;;;;;;5030663;28;20231;-79
2022/01/25 08:00:18;;;;;;;36.47;19.45;;;4.00;99.90;;;;;;5035825;28;20215;-79
2022/01/25 08:02:45;;;;;;;45.85;19.50;;;4.00;99.90;;;;;;5034130;28;20251;-78
2022/01/25 08:05:14;;;;;;;43.38;19.05;;;4.00;99.90;;;;;;5032815;28;20218;-80
2022/01/25 08:07:41;;;;;;;38.72;19.15;;;3.90;99.90;;;;;;5031949;28;20204;-79
2022/01/25 08:10:08;;;;;;;40.15;19.95;;;4.00;99.90;;;;;;5028986;28;20200;-78
2022/01/25 08:12:35;;;;;;;46.78;20.77;;;4.10;99.90;;;;;;5029723;28;20224;-78
2022/01/25 08:15:03;;;;;;;42.63;19.15;;;4.10;99.90;;;;;;5029644;28;20580;-79
2022/01/25 08:17:30;;;;;;;34.58;19.10;;;4.10;99.90;;;;;;5024775;28;20228;-79
2022/01/25 08:19:57;;;;;;;44.83;19.98;;;4.20;99.90;;;;;;5024751;28;20216;-77
2022/01/25 08:22:25;;;;;;;40.15;18.98;;;4.30;99.90;;;;;;5023400;28;20232;-80
2022/01/25 08:24:52;;;;;;;44.33;19.15;;;4.30;99.90;;;;;;5026640;28;20204;-79
2022/01/25 08:27:20;;;;;;;38.85;18.52;;;4.20;99.90;;;;;;5029305;28;20215;-78
2022/01/25 08:29:46;;;;;;;48.40;20.92;;;4.20;99.90;;;;;;5030728;28;20207;-78
2022/01/25 08:32:13;;;;;;;40.47;17.58;;;4.10;99.90;;;;;;5027497;28;20221;-79
2022/01/25 08:34:40;;;;;;;41.78;20.77;;;4.00;99.90;;;;;;5020525;28;20350;-78
2022/01/25 08:37:08;;;;;;;37.10;18.27;;;3.90;99.90;;;;;;5020714;28;20216;-79
2022/01/25 08:39:36;;;;;;;41.15;18.85;;;4.10;99.90;;;;;;5026299;28;20224;-79
2022/01/25 08:42:04;;;;;;;40.00;19.23;;;4.00;99.90;;;;;;5030797;28;20224;-78
2022/01/25 08:44:31;;;;;;;38.17;18.13;;;4.10;99.90;;;;;;5031646;28;20271;-78
2022/01/25 08:46:58;;;;;;;44.78;20.98;;;4.10;99.90;;;;;;5029677;28;20258;-79
2022/01/25 08:49:25;;;;;;;39.90;20.27;;;4.20;99.90;;;;;;5026750;28;20235;-79
2022/01/25 08:51:52;;;;;;;40.10;18.73;;;4.90;99.90;;;;;;5024903;28;20204;-79
2022/01/25 08:54:18;;;;;;;33.72;17.80;;;4.30;99.90;;;;;;5024837;28;20200;-79
2022/01/25 08:56:46;;;;;;;40.22;18.58;;;4.30;99.90;;;;;;5023124;28;20215;-79
2022/01/25 08:59:13;;;;;;;41.63;20.88;;;4.30;99.90;;;;;;5022285;28;20258;-79
2022/01/25 09:01:40;;;;;;;35.05;17.15;;;4.60;99.90;;;;;;5022210;28;20204;-80
2022/01/25 09:04:06;;;;;;;35.13;17.08;;;4.40;99.90;;;;;;5022996;28;20204;-79
2022/01/25 09:06:34;;;;;;;39.88;18.65;;;4.60;99.90;;;;;;5021778;28;20208;-80
2022/01/25 09:09:02;;;;;;;34.63;18.02;;;4.60;99.90;;;;;;5022626;28;20298;-79
2022/01/25 09:11:28;;;;;;;36.60;17.33;;;4.50;99.90;;;;;;5022044;28;20300;-80
2022/01/25 09:13:56;;;;;;;35.58;16.85;;;4.60;99.90;;;;;;5025527;28;20224;-79
2022/01/25 09:16:23;;;;;;;35.28;18.92;;;4.70;99.90;;;;;;5032483;28;20212;-79
2022/01/25 09:18:50;;;;;;;42.47;18.63;;;4.80;99.90;;;;;;5032192;28;20717;-80
2022/01/25 09:21:16;;;;;;;37.00;17.73;;;4.70;99.90;;;;;;5025295;28;20671;-78
2022/01/25 09:23:43;;;;;;;35.45;19.02;;;4.60;99.90;;;;;;5022733;28;20220;-79
2022/01/25 09:26:09;;;;;;;42.05;19.25;;;4.60;99.90;;;;;;5026994;28;20231;-79
2022/01/25 09:28:36;;;;;;;36.22;16.85;;;4.60;99.90;;;;;;5033532;28;20208;-79
2022/01/25 09:31:04;;;;;;;38.35;18.35;;;4.60;99.90;;;;;;5030015;28;20258;-79
2022/01/25 09:33:31;;;;;;;38.42;18.38;;;4.70;99.90;;;;;;5023554;28;20228;-79
2022/01/25 09:35:58;;;;;;;32.30;16.52;;;4.70;99.90;;;;;;5021988;28;20295;-79
2022/01/25 09:38:26;;;;;;;32.65;16.25;;;4.70;99.90;;;;;;5019202;28;20554;-79
2022/01/25 09:40:53;;;;;;;31.50;16.63;;;4.80;99.90;;;;;;5019588;28;20204;-79
2022/01/25 09:43:23;;;;;;;30.88;15.55;;;4.80;99.90;;;;;;5022186;28;20243;-79
2022/01/25 09:45:50;;;;;;;31.38;15.32;;;4.90;99.90;;;;;;5020550;28;20219;-78
2022/01/25 09:48:18;;;;;;;30.33;16.15;;;4.80;99.90;;;;;;5020476;28;20713;-80
2022/01/25 09:50:45;;;;;;;34.10;15.10;;;4.80;99.90;;;;;;5020186;28;20667;-79
2022/01/25 09:53:12;;;;;;;29.67;14.63;;;4.90;99.90;;;;;;5020828;28;20228;-79
2022/01/25 09:55:41;;;;;;;33.00;17.98;;;4.80;99.90;;;;;;5019757;28;20232;-80
2022/01/25 09:58:08;;;;;;;35.10;17.83;;;4.90;99.90;;;;;;5022755;28;20239;-80
2022/01/25 10:00:37;;;;;;;32.58;16.23;;;4.80;99.90;;;;;;5025909;28;20270;-80
2022/01/25 10:03:10;;;;;;;30.65;14.95;;;4.80;99.90;;;;;;5024637;28;20254;-81
2022/01/25 10:05:41;;;;;;;44.83;16.23;;;4.70;99.90;;;;;;5036150;28;20185;-79
2022/01/25 10:08:10;;;;;;;33.35;14.88;;;4.70;99.90;;;;;;5036057;28;20196;-78
2022/01/25 10:10:38;;;;;;;31.08;14.30;;;4.70;99.90;;;;;;5030323;28;20208;-79
2022/01/25 10:13:09;;;;;;;29.95;14.30;;;4.70;99.90;;;;;;5024338;28;20224;-79
2022/01/25 10:15:36;;;;;;;33.42;14.35;;;4.70;99.90;;;;;;5026254;28;20200;-79
2022/01/25 10:18:04;;;;;;;29.08;14.20;;;4.70;99.90;;;;;;5027506;28;20219;-80
2022/01/25 10:20:33;;;;;;;29.58;14.20;;;4.70;99.90;;;;;;5027441;28;20323;-79
2022/01/25 10:23:04;;;;;;;29.08;13.93;;;4.70;99.90;;;;;;5028960;28;20232;-80
2022/01/25 10:25:34;;;;;;;30.40;14.35;;;4.80;99.90;;;;;;5027814;28;20192;-79
2022/01/25 10:28:03;;;;;;;26.05;13.05;;;4.80;99.90;;;;;;5025663;28;20203;-78
2022/01/25 10:30:39;;;;;;;27.92;15.82;;;4.80;99.90;;;;;;5023985;28;20209;-80
2022/01/25 10:33:30;;;;;;;24.42;13.27;;;4.70;99.90;;;;;;5021990;28;20235;-80
2022/01/25 10:35:58;;;;;;;28.40;14.35;;;4.70;99.90;;;;;;5021628;28;20521;-79
2022/01/25 10:38:29;;;;;;;29.73;15.60;;;4.80;99.90;;;;;;5020269;28;20639;-78
2022/01/25 10:41:03;;;;;;;29.17;15.88;;;4.80;99.90;;;;;;5020619;28;20666;-80
2022/01/25 10:43:31;;;;;;;27.75;14.98;;;4.80;99.90;;;;;;5020835;28;20707;-80
2022/01/25 10:46:10;;;;;;;29.33;14.70;;;4.40;99.90;;;;;;5021524;28;20208;-79
2022/01/25 10:48:38;;;;;;;29.55;13.73;;;4.80;99.90;;;;;;5033921;28;20204;-79
2022/01/25 10:51:06;;;;;;;30.60;13.93;;;4.90;99.90;;;;;;5032888;28;20232;-80
2022/01/25 10:53:34;;;;;;;30.67;14.80;;;5.00;99.90;;;;;;5030816;28;20236;-80
2022/01/25 10:56:01;;;;;;;27.10;15.25;;;4.90;99.90;;;;;;5029341;28;20231;-79
2022/01/25 10:58:29;;;;;;;26.80;13.05;;;4.90;99.90;;;;;;5024254;28;20204;-79
2022/01/25 11:00:56;;;;;;;24.98;12.90;;;4.90;99.90;;;;;;5021499;28;20232;-79
2022/01/25 11:03:28;;;;;;;25.67;13.65;;;5.00;99.90;;;;;;5021575;28;20224;-80
2022/01/25 11:05:56;;;;;;;27.48;12.07;;;5.00;99.90;;;;;;5021028;28;20204;-80
2022/01/25 11:08:27;;;;;;;25.02;12.00;;;5.10;99.90;;;;;;5019251;28;20230;-79
2022/01/25 11:10:58;;;;;;;24.17;10.88;;;5.10;99.90;;;;;;5019861;28;20231;-80
2022/01/25 11:13:36;;;;;;;21.42;11.88;;;5.00;99.90;;;;;;5021462;28;20258;-80
2022/01/25 11:16:05;;;;;;;27.52;12.80;;;5.00;99.90;;;;;;5019180;28;20195;-80
2022/01/25 11:18:32;;;;;;;26.63;13.55;;;5.10;99.90;;;;;;5027107;28;20212;-78
2022/01/25 11:21:01;;;;;;;28.38;13.88;;;5.00;99.90;;;;;;5029084;28;20231;-78
2022/01/25 11:23:31;;;;;;;22.33;11.38;;;5.10;99.90;;;;;;5028689;28;20239;-80
2022/01/25 11:26:02;;;;;;;19.33;10.93;;;4.50;99.90;;;;;;5030461;28;20211;-79
2022/01/25 11:28:30;;;;;;;23.08;11.13;;;5.00;99.90;;;;;;5031733;28;20188;-80
2022/01/25 11:30:57;;;;;;;23.70;11.68;;;5.10;99.90;;;;;;5026080;28;20201;-80
2022/01/25 11:33:24;;;;;;;21.92;10.80;;;5.20;99.90;;;;;;5023532;28;20282;-79
2022/01/25 11:35:51;;;;;;;28.23;12.98;;;5.20;99.90;;;;;;5021595;28;20363;-79
2022/01/25 11:38:32;;;;;;;19.85;11.45;;;5.20;99.90;;;;;;5020987;28;20254;-79
2022/01/25 11:41:00;;;;;;;19.30;9.95;;;5.30;99.90;;;;;;5020220;28;20212;-79
2022/01/25 11:43:27;;;;;;;19.08;10.20;;;5.30;99.90;;;;;;5019084;28;20267;-80
2022/01/25 11:46:03;;;;;;;22.27;12.68;;;5.40;99.90;;;;;;5019703;28;20228;-80
2022/01/25 11:48:38;;;;;;;20.52;10.50;;;5.50;99.90;;;;;;5019441;28;20559;-80
2022/01/25 11:51:12;;;;;;;18.10;10.20;;;5.50;99.90;;;;;;5020901;28;20188;-80
2022/01/25 11:53:41;;;;;;;21.50;9.95;;;5.40;99.90;;;;;;5026173;28;20220;-80
2022/01/25 11:56:11;;;;;;;16.17;9.70;;;5.40;99.90;;;;;;5030892;28;20223;-80
2022/01/25 11:58:38;;;;;;;14.57;8.60;;;5.40;99.90;;;;;;5032239;28;20204;-77
2022/01/25 12:01:07;;;;;;;24.13;10.82;;;5.40;99.90;;;;;;5029690;28;20251;-78
2022/01/25 12:03:37;;;;;;;15.15;9.77;;;5.50;99.90;;;;;;5031259;28;20315;-78
2022/01/25 12:06:08;;;;;;;18.25;9.68;;;5.30;99.90;;;;;;5029240;28;20195;-79
2022/01/25 12:08:50;;;;;;;21.92;9.65;;;5.30;99.90;;;;;;5028875;28;20355;-80
2022/01/25 12:11:37;;;;;;;19.10;9.88;;;5.40;99.90;;;;;;5026543;28;20208;-79
2022/01/25 12:14:26;;;;;;;17.50;10.10;;;5.40;99.90;;;;;;5025222;28;20235;-80
2022/01/25 12:16:56;;;;;;;17.08;8.75;;;5.30;99.90;;;;;;5024523;28;20195;-81
2022/01/25 12:19:34;;;;;;;19.23;9.80;;;5.30;99.90;;;;;;5026023;28;20216;-80
2022/01/25 12:22:06;;;;;;;19.17;10.10;;;5.50;99.90;;;;;;5024895;28;20291;-80
2022/01/25 12:24:49;;;;;;;16.30;9.00;;;5.50;99.90;;;;;;5024720;28;20212;-81
2022/01/25 12:27:21;;;;;;;15.52;8.05;;;5.50;99.90;;;;;;5024207;28;20188;-81
2022/01/25 12:29:59;;;;;;;16.65;9.20;;;5.40;99.90;;;;;;5023208;28;20189;-80
2022/01/25 12:32:28;;;;;;;16.98;9.82;;;5.50;99.90;;;;;;5023744;28;20224;-80
2022/01/25 12:35:05;;;;;;;15.65;8.90;;;5.50;99.90;;;;;;5023686;28;20205;-80
2022/01/25 12:37:55;;;;;;;15.82;9.15;;;5.50;99.90;;;;;;5026705;28;20257;-80
2022/01/25 12:40:37;;;;;;;17.52;8.80;;;5.50;99.90;;;;;;5024888;28;20274;-79
2022/01/25 12:43:06;;;;;;;18.10;10.65;;;5.50;99.90;;;;;;5038446;22;20232;-83
2022/01/25 12:45:36;;;;;;;20.40;11.07;;;5.50;99.90;;;;;;5025640;28;20231;-80
2022/01/25 12:48:06;;;;;;;19.08;11.00;;;5.60;99.90;;;;;;5027706;28;20207;-79
2022/01/25 12:50:36;;;;;;;22.50;11.30;;;5.40;99.90;;;;;;5028495;28;20189;-79
2022/01/25 12:53:04;;;;;;;15.73;8.77;;;5.40;99.90;;;;;;5030801;28;20243;-82
2022/01/25 12:55:34;;;;;;;22.98;10.77;;;5.40;99.90;;;;;;5028713;28;20262;-79
2022/01/25 12:58:01;;;;;;;16.15;9.52;;;5.50;99.90;;;;;;5027507;28;20251;-80
2022/01/25 13:00:34;;;;;;;17.52;9.60;;;5.50;99.90;;;;;;5032047;28;20232;-80
2022/01/25 13:03:17;;;;;;;23.30;10.15;;;5.40;99.90;;;;;;5028477;28;20255;-79
2022/01/25 13:05:46;;;;;;;22.90;11.15;;;5.40;99.90;;;;;;5012295;28;20231;-80
2022/01/25 13:08:23;;;;;;;18.15;11.25;;;5.40;99.90;;;;;;5025605;28;20266;-81
2022/01/25 13:10:53;;;;;;;19.38;9.93;;;5.40;99.90;;;;;;5025866;28;20215;-83
2022/01/25 13:13:28;;;;;;;22.23;10.75;;;5.40;99.90;;;;;;5026369;28;20224;-82
2022/01/25 13:15:58;;;;;;;22.55;9.63;;;5.40;99.90;;;;;;5026416;28;20251;-82
2022/01/25 13:18:28;;;;;;;20.38;10.40;;;5.40;99.90;;;;;;5024888;28;20235;-81
2022/01/25 13:21:18;;;;;;;26.00;11.70;;;5.50;99.90;;;;;;5024641;28;20239;-82
2022/01/25 13:23:53;;;;;;;22.70;10.35;;;5.40;99.90;;;;;;5018542;28;20228;-83
2022/01/25 13:26:22;;;;;;;21.92;11.10;;;5.40;99.90;;;;;;5024632;28;20200;-80
2022/01/25 13:28:55;;;;;;;23.80;11.55;;;5.30;99.90;;;;;;5028910;28;20224;-79
2022/01/25 13:31:24;;;;;;;23.98;12.00;;;5.10;99.90;;;;;;5031010;28;20248;-81
2022/01/25 13:33:53;;;;;;;23.77;11.98;;;5.10;99.90;;;;;;5031850;28;20228;-82
2022/01/25 13:36:22;;;;;;;21.95;11.93;;;5.20;99.90;;;;;;5024568;28;20236;-83
2022/01/25 13:38:49;;;;;;;23.05;12.35;;;5.20;99.90;;;;;;5024681;28;20626;-82
2022/01/25 13:41:25;;;;;;;18.00;12.20;;;5.10;99.90;;;;;;5028731;28;20239;-82
2022/01/25 13:46:41;;;;;;;26.75;13.32;;;5.20;99.90;;;;;;5022732;28;20192;-83
2022/01/25 13:49:11;;;;;;;24.52;11.90;;;5.20;99.90;;;;;;5023629;28;20232;-82
2022/01/25 13:51:41;;;;;;;25.85;12.23;;;5.30;99.90;;;;;;5022979;28;20247;-82
2022/01/25 13:54:11;;;;;;;23.05;13.45;;;5.40;99.90;;;;;;5033727;28;20247;-81
2022/01/25 13:56:38;;;;;;;20.80;10.68;;;5.40;99.90;;;;;;5038676;28;20189;-83